createdAt,value
2018-08-06T00:00:13.849Z,12.73
2018-08-06T00:02:42.266Z,12.00
2018-08-06T00:05:11.025Z,10.80
2018-08-06T00:07:39.457Z,10.23
2018-08-06T00:10:11.465Z,9.70
2018-08-06T00:12:40.094Z,9.53
2018-08-06T00:15:10.275Z,10.23
2018-08-06T00:17:39.461Z,9.80
2018-08-06T00:20:09.397Z,9.90
2018-08-06T00:22:38.689Z,9.13
2018-08-06T00:25:08.465Z,8.80
2018-08-06T00:27:37.206Z,8.50
2018-08-06T00:30:08.358Z,9.67
2018-08-06T00:32:37.504Z,8.73
2018-08-06T00:35:06.589Z,9.13
2018-08-06T00:37:35.456Z,9.50
2018-08-06T00:40:04.192Z,9.87
2018-08-06T00:42:33.200Z,9.50
2018-08-06T00:45:01.889Z,10.53
2018-08-06T00:47:30.748Z,11.63
2018-08-06T00:50:00.970Z,11.37
2018-08-06T00:52:30.434Z,10.70
2018-08-06T00:54:59.823Z,11.23
2018-08-06T00:57:28.564Z,10.63
2018-08-06T00:59:57.421Z,10.50
2018-08-06T01:02:30.993Z,10.47
2018-08-06T01:04:59.739Z,10.43
2018-08-06T01:07:28.414Z,10.57
2018-08-06T01:09:57.121Z,10.53
2018-08-06T01:12:30.509Z,10.73
2018-08-06T01:14:59.189Z,10.67
2018-08-06T01:17:27.905Z,10.67
2018-08-06T01:19:56.667Z,10.50
2018-08-06T01:22:26.377Z,10.77
2018-08-06T01:24:55.041Z,9.67
2018-08-06T01:27:23.912Z,10.50
2018-08-06T01:29:52.407Z,10.70
2018-08-06T01:32:21.056Z,10.00
2018-08-06T01:34:49.718Z,9.60
2018-08-06T01:37:18.501Z,9.60
2018-08-06T01:39:47.131Z,9.70
2018-08-06T01:42:15.874Z,9.63
2018-08-06T01:44:44.569Z,8.93
2018-08-06T01:47:13.288Z,8.83
2018-08-06T01:49:42.027Z,9.10
2018-08-06T01:52:11.596Z,9.23
2018-08-06T01:54:40.659Z,9.00
2018-08-06T01:57:09.402Z,9.03
2018-08-06T01:59:38.182Z,9.37
2018-08-06T02:02:07.315Z,9.40
2018-08-06T02:04:36.065Z,10.07
2018-08-06T02:07:04.793Z,8.90
2018-08-06T02:09:33.638Z,8.77
2018-08-06T02:12:03.468Z,9.57
2018-08-06T02:14:32.117Z,8.80
2018-08-06T02:17:00.829Z,9.07
2018-08-06T02:19:29.584Z,9.23
2018-08-06T02:21:57.964Z,9.23
2018-08-06T02:24:26.484Z,8.97
2018-08-06T02:26:55.424Z,8.00
2018-08-06T02:29:24.776Z,8.40
2018-08-06T02:31:53.905Z,8.63
2018-08-06T02:34:22.593Z,8.93
2018-08-06T02:36:51.321Z,8.90
2018-08-06T02:39:20.137Z,8.30
2018-08-06T02:41:48.930Z,8.83
2018-08-06T02:44:17.740Z,8.23
2018-08-06T02:46:46.178Z,9.17
2018-08-06T02:49:14.959Z,8.23
2018-08-06T02:51:43.316Z,8.37
2018-08-06T02:54:12.311Z,8.33
2018-08-06T02:56:41.236Z,8.07
2018-08-06T02:59:10.285Z,8.10
2018-08-06T03:01:39.159Z,8.47
2018-08-06T03:04:08.735Z,8.23
2018-08-06T03:06:38.307Z,8.40
2018-08-06T03:09:10.090Z,7.87
2018-08-06T03:11:39.188Z,9.27
2018-08-06T03:14:09.577Z,8.83
2018-08-06T03:16:39.312Z,8.60
2018-08-06T03:19:09.033Z,8.80
2018-08-06T03:21:38.527Z,8.53
2018-08-06T03:24:08.610Z,8.33
2018-08-06T03:26:37.273Z,9.10
2018-08-06T03:29:06.078Z,8.90
2018-08-06T03:31:34.814Z,8.83
2018-08-06T03:34:03.497Z,8.70
2018-08-06T03:36:32.225Z,9.23
2018-08-06T03:39:00.937Z,8.70
2018-08-06T03:41:29.644Z,8.87
2018-08-06T03:43:59.007Z,8.00
2018-08-06T03:46:27.671Z,9.27
2018-08-06T03:48:56.417Z,8.20
2018-08-06T03:51:26.041Z,8.27
2018-08-06T03:53:54.736Z,8.93
2018-08-06T03:56:24.064Z,8.30
2018-08-06T03:58:52.908Z,8.40
2018-08-06T04:01:21.667Z,9.03
2018-08-06T04:03:50.522Z,9.20
2018-08-06T04:06:19.368Z,10.17
2018-08-06T04:08:48.183Z,10.40
2018-08-06T04:11:16.920Z,9.97
2018-08-06T04:13:46.080Z,9.80
2018-08-06T04:16:15.063Z,9.40
2018-08-06T04:18:43.804Z,8.87
2018-08-06T04:21:12.563Z,9.40
2018-08-06T04:23:41.301Z,8.87
2018-08-06T04:26:10.154Z,10.27
2018-08-06T04:28:38.928Z,9.60
2018-08-06T04:31:07.629Z,8.80
2018-08-06T04:33:36.685Z,8.83
2018-08-06T04:36:05.638Z,8.57
2018-08-06T04:38:34.433Z,8.73
2018-08-06T04:41:02.706Z,8.63
2018-08-06T04:43:31.402Z,8.97
2018-08-06T04:46:00.221Z,8.90
2018-08-06T04:48:28.837Z,9.70
2018-08-06T04:50:57.562Z,9.07
2018-08-06T04:53:26.271Z,8.40
2018-08-06T04:55:54.949Z,8.10
2018-08-06T04:58:24.294Z,9.03
2018-08-06T05:00:53.029Z,9.17
2018-08-06T05:03:21.775Z,9.20
2018-08-06T05:05:50.515Z,7.47
2018-08-06T05:08:20.060Z,7.80
2018-08-06T05:10:48.805Z,7.50
2018-08-06T05:13:17.579Z,7.70
2018-08-06T05:15:46.262Z,8.00
2018-08-06T05:18:15.064Z,7.47
2018-08-06T05:20:43.842Z,7.90
2018-08-06T05:23:12.485Z,7.10
2018-08-06T05:25:41.252Z,7.10
2018-08-06T05:28:09.987Z,6.63
2018-08-06T05:30:38.758Z,7.90
2018-08-06T05:33:07.525Z,7.87
2018-08-06T05:35:36.274Z,7.47
2018-08-06T05:38:05.050Z,7.00
2018-08-06T05:40:34.626Z,8.10
2018-08-06T05:43:03.862Z,8.20
2018-08-06T05:45:33.341Z,7.50
2018-08-06T05:48:02.101Z,8.43
2018-08-06T05:50:30.904Z,7.07
2018-08-06T05:52:59.598Z,7.60
2018-08-06T05:55:28.276Z,6.57
2018-08-06T05:57:56.949Z,7.50
2018-08-06T06:00:26.368Z,6.90
2018-08-06T06:02:55.099Z,7.27
2018-08-06T06:05:23.849Z,6.70
2018-08-06T06:07:52.561Z,7.07
2018-08-06T06:10:21.237Z,7.03
2018-08-06T06:12:50.904Z,6.90
2018-08-06T06:15:19.689Z,6.53
2018-08-06T06:17:48.459Z,7.10
2018-08-06T06:20:17.168Z,6.67
2018-08-06T06:22:46.724Z,6.73
2018-08-06T06:25:16.709Z,6.60
2018-08-06T06:27:45.440Z,6.20
2018-08-06T06:30:16.364Z,6.20
2018-08-06T06:32:47.080Z,5.97
2018-08-06T06:35:15.810Z,5.80
2018-08-06T06:37:44.787Z,5.37
2018-08-06T06:40:13.523Z,5.20
2018-08-06T06:42:42.289Z,5.00
2018-08-06T06:45:11.506Z,4.80
2018-08-06T06:47:40.581Z,5.17
2018-08-06T06:50:09.789Z,6.07
2018-08-06T06:52:39.411Z,5.27
2018-08-06T06:55:09.692Z,4.63
2018-08-06T06:57:38.376Z,3.87
2018-08-06T07:00:08.498Z,4.60
2018-08-06T07:02:37.238Z,3.93
2018-08-06T07:05:06.494Z,4.13
2018-08-06T07:07:35.673Z,4.60
2018-08-06T07:10:04.702Z,4.20
2018-08-06T07:12:33.439Z,4.50
2018-08-06T07:15:01.880Z,3.53
2018-08-06T07:17:30.644Z,3.87
2018-08-06T07:20:03.728Z,4.47
2018-08-06T07:22:33.276Z,4.40
2018-08-06T07:25:02.041Z,4.23
2018-08-06T07:27:30.710Z,4.77
2018-08-06T07:29:59.499Z,4.00
2018-08-06T07:32:28.257Z,5.20
2018-08-06T07:34:56.881Z,4.77
2018-08-06T07:37:26.111Z,4.30
2018-08-06T07:39:54.942Z,4.80
2018-08-06T07:42:24.105Z,4.83
2018-08-06T07:44:52.939Z,4.63
2018-08-06T07:47:21.945Z,4.80
2018-08-06T07:49:50.933Z,4.33
2018-08-06T07:52:19.553Z,5.10
2018-08-06T07:54:48.209Z,4.60
2018-08-06T07:57:16.981Z,5.10
2018-08-06T07:59:46.415Z,4.20
2018-08-06T08:02:15.129Z,4.27
2018-08-06T08:04:43.919Z,4.80
2018-08-06T08:07:12.749Z,4.13
2018-08-06T08:09:41.484Z,4.47
2018-08-06T08:12:10.267Z,5.10
2018-08-06T08:14:39.067Z,4.40
2018-08-06T08:17:07.778Z,4.40
2018-08-06T08:19:36.346Z,4.70
2018-08-06T08:22:04.633Z,4.33
2018-08-06T08:24:33.357Z,4.67
2018-08-06T08:27:02.142Z,4.27
2018-08-06T08:29:30.927Z,4.70
2018-08-06T08:31:59.584Z,5.30
2018-08-06T08:34:28.315Z,5.10
2018-08-06T08:36:56.780Z,5.10
2018-08-06T08:39:25.969Z,4.60
2018-08-06T08:41:54.802Z,4.60
2018-08-06T08:44:23.570Z,4.40
2018-08-06T08:46:52.912Z,4.20
2018-08-06T08:49:22.229Z,5.23
2018-08-06T08:51:50.984Z,4.80
2018-08-06T08:54:19.737Z,4.63
2018-08-06T08:56:48.505Z,4.97
2018-08-06T08:59:17.281Z,4.97
2018-08-06T09:01:46.086Z,5.00
2018-08-06T09:04:15.043Z,5.40
2018-08-06T09:06:44.038Z,4.63
2018-08-06T09:09:13.500Z,4.73
2018-08-06T09:11:42.702Z,5.07
2018-08-06T09:14:12.290Z,5.23
2018-08-06T09:16:40.531Z,4.60
2018-08-06T09:19:09.345Z,4.70
2018-08-06T09:21:38.036Z,4.30
2018-08-06T09:24:13.592Z,4.20
2018-08-06T09:26:42.338Z,4.87
2018-08-06T09:29:11.027Z,4.63
2018-08-06T09:31:39.684Z,4.53
2018-08-06T09:34:08.677Z,4.10
2018-08-06T09:36:37.357Z,5.30
2018-08-06T09:39:09.644Z,4.70
2018-08-06T09:41:38.317Z,4.90
2018-08-06T09:44:07.985Z,4.97
2018-08-06T09:46:37.796Z,4.87
2018-08-06T09:49:07.641Z,4.50
2018-08-06T09:51:36.433Z,4.43
2018-08-06T09:54:05.200Z,5.00
2018-08-06T09:56:33.521Z,5.20
2018-08-06T09:59:01.857Z,4.77
2018-08-06T10:01:35.748Z,4.73
2018-08-06T10:04:04.557Z,4.97
2018-08-06T10:06:33.882Z,4.80
2018-08-06T10:09:02.493Z,5.60
2018-08-06T10:11:31.222Z,5.03
2018-08-06T10:13:59.905Z,5.43
2018-08-06T10:16:28.608Z,4.93
2018-08-06T10:18:57.429Z,5.00
2018-08-06T10:21:30.301Z,5.77
2018-08-06T10:24:03.630Z,5.23
2018-08-06T10:26:33.168Z,4.50
2018-08-06T10:29:03.112Z,5.13
2018-08-06T10:31:31.961Z,5.33
2018-08-06T10:34:01.055Z,4.80
2018-08-06T10:36:30.622Z,5.80
2018-08-06T10:38:59.367Z,5.50
2018-08-06T10:41:28.100Z,5.13
2018-08-06T10:43:56.841Z,5.00
2018-08-06T10:46:29.872Z,5.97
2018-08-06T10:48:58.604Z,5.40
2018-08-06T10:51:27.369Z,5.37
2018-08-06T10:53:58.693Z,5.10
2018-08-06T10:56:27.015Z,4.93
2018-08-06T10:58:55.774Z,4.87
2018-08-06T11:01:24.818Z,6.10
2018-08-06T11:03:53.544Z,5.20
2018-08-06T11:06:22.242Z,5.90
2018-08-06T11:08:50.998Z,5.37
2018-08-06T11:11:19.688Z,5.17
2018-08-06T11:13:48.436Z,5.63
2018-08-06T11:16:17.098Z,4.90
2018-08-06T11:18:45.498Z,5.30
2018-08-06T11:21:14.170Z,5.40
2018-08-06T11:23:42.881Z,5.73
2018-08-06T11:26:11.574Z,5.30
2018-08-06T11:28:40.292Z,4.80
2018-08-06T11:31:13.732Z,5.23
2018-08-06T11:33:42.452Z,5.27
2018-08-06T11:36:11.133Z,5.77
2018-08-06T11:38:39.811Z,4.90
2018-08-06T11:41:08.600Z,4.87
2018-08-06T11:43:37.215Z,5.10
2018-08-06T11:46:05.939Z,5.00
2018-08-06T11:48:34.863Z,5.07
2018-08-06T11:51:04.400Z,5.60
2018-08-06T11:53:33.069Z,4.90
2018-08-06T11:56:01.753Z,5.27
2018-08-06T11:58:30.425Z,5.10
2018-08-06T12:00:59.645Z,4.90
2018-08-06T12:03:32.427Z,4.87
2018-08-06T12:06:02.088Z,5.17
2018-08-06T12:08:30.593Z,4.53
2018-08-06T12:10:59.259Z,4.87
2018-08-06T12:13:27.983Z,5.47
2018-08-06T12:15:56.733Z,5.20
2018-08-06T12:18:30.215Z,5.10
2018-08-06T12:20:59.487Z,4.73
2018-08-06T12:23:27.875Z,4.90
2018-08-06T12:25:56.659Z,4.30
2018-08-06T12:28:25.970Z,4.60
2018-08-06T12:30:54.652Z,4.90
2018-08-06T12:33:25.150Z,4.03
2018-08-06T12:35:54.104Z,4.40
2018-08-06T12:38:23.592Z,4.57
2018-08-06T12:40:51.996Z,4.87
2018-08-06T12:43:21.521Z,4.97
2018-08-06T12:45:50.218Z,4.27
2018-08-06T12:48:24.417Z,4.90
2018-08-06T12:50:53.709Z,5.13
2018-08-06T12:53:23.021Z,5.17
2018-08-06T12:55:51.999Z,4.67
2018-08-06T12:58:21.161Z,5.23
2018-08-06T13:00:49.823Z,5.20
2018-08-06T13:03:18.504Z,4.70
2018-08-06T13:05:47.221Z,4.27
2018-08-06T13:08:16.861Z,4.87
2018-08-06T13:10:45.536Z,4.43
2018-08-06T13:13:13.852Z,4.50
2018-08-06T13:15:42.539Z,4.60
2018-08-06T13:18:11.605Z,4.87
2018-08-06T13:20:40.283Z,3.80
2018-08-06T13:23:09.000Z,4.47
2018-08-06T13:25:37.740Z,4.57
2018-08-06T13:28:06.493Z,4.20
2018-08-06T13:30:35.168Z,4.63
2018-08-06T13:33:03.491Z,5.10
2018-08-06T13:35:32.150Z,4.23
2018-08-06T13:38:00.860Z,4.50
2018-08-06T13:40:29.606Z,4.30
2018-08-06T13:42:58.313Z,4.80
2018-08-06T13:45:27.203Z,4.63
2018-08-06T13:47:55.876Z,5.07
2018-08-06T13:50:24.886Z,3.70
2018-08-06T13:52:53.624Z,3.80
2018-08-06T13:55:22.319Z,4.23
2018-08-06T13:57:51.041Z,4.50
2018-08-06T14:00:20.100Z,3.80
2018-08-06T14:02:48.768Z,5.03
2018-08-06T14:05:18.347Z,4.20
2018-08-06T14:07:48.308Z,4.13
2018-08-06T14:10:17.408Z,4.80
2018-08-06T14:12:46.195Z,4.90
2018-08-06T14:15:15.041Z,4.43
2018-08-06T14:17:44.172Z,4.13
2018-08-06T14:20:14.601Z,4.50
2018-08-06T14:22:42.860Z,4.13
2018-08-06T14:25:11.955Z,4.60
2018-08-06T14:27:40.697Z,4.17
2018-08-06T14:30:12.846Z,4.23
2018-08-06T14:32:42.033Z,3.70
2018-08-06T14:35:10.800Z,3.93
2018-08-06T14:37:39.475Z,3.90
2018-08-06T14:40:10.487Z,3.90
2018-08-06T14:42:40.197Z,4.50
2018-08-06T14:45:09.783Z,3.77
2018-08-06T14:47:38.506Z,3.73
2018-08-06T14:50:08.644Z,3.93
2018-08-06T14:52:37.470Z,4.23
2018-08-06T14:55:06.270Z,3.87
2018-08-06T14:57:39.018Z,3.77
2018-08-06T15:00:24.090Z,3.80
2018-08-06T15:02:53.725Z,3.70
2018-08-06T15:05:23.155Z,4.03
2018-08-06T15:07:51.825Z,3.73
2018-08-06T15:10:20.273Z,3.60
2018-08-06T15:12:49.003Z,4.00
2018-08-06T15:15:18.069Z,3.10
2018-08-06T15:17:46.878Z,4.03
2018-08-06T15:20:17.084Z,3.83
2018-08-06T15:22:45.945Z,3.73
2018-08-06T15:25:19.212Z,4.30
2018-08-06T15:27:47.876Z,4.47
2018-08-06T15:30:16.636Z,4.20
2018-08-06T15:32:45.396Z,3.50
2018-08-06T15:35:14.548Z,3.23
2018-08-06T15:37:44.057Z,3.90
2018-08-06T15:40:18.501Z,4.07
2018-08-06T15:42:47.299Z,3.50
2018-08-06T15:45:16.057Z,4.13
2018-08-06T15:47:45.630Z,3.40
2018-08-06T15:50:17.366Z,3.50
2018-08-06T15:52:46.155Z,3.43
2018-08-06T15:55:14.886Z,3.63
2018-08-06T15:57:43.676Z,3.70
2018-08-06T16:00:14.819Z,3.70
2018-08-06T16:02:43.875Z,3.80
2018-08-06T16:05:12.771Z,4.03
2018-08-06T16:07:41.456Z,3.50
2018-08-06T16:10:11.299Z,3.73
2018-08-06T16:12:39.607Z,3.80
2018-08-06T16:15:10.232Z,3.70
2018-08-06T16:17:39.633Z,3.83
2018-08-06T16:20:10.324Z,3.70
2018-08-06T16:22:39.228Z,3.60
2018-08-06T16:25:08.313Z,3.50
2018-08-06T16:27:37.063Z,3.80
2018-08-06T16:30:09.281Z,3.70
2018-08-06T16:32:37.988Z,3.80
2018-08-06T16:35:06.723Z,4.33
2018-08-06T16:37:35.444Z,3.80
2018-08-06T16:40:04.769Z,3.70
2018-08-06T16:42:33.471Z,3.80
2018-08-06T16:45:02.168Z,3.90
2018-08-06T16:47:30.930Z,4.23
2018-08-06T16:49:59.613Z,3.57
2018-08-06T16:52:28.375Z,4.07
2018-08-06T16:54:56.993Z,3.60
2018-08-06T16:57:30.247Z,3.93
2018-08-06T16:59:58.899Z,3.77
2018-08-06T17:02:27.608Z,3.73
2018-08-06T17:04:56.257Z,3.70
2018-08-06T17:07:25.972Z,3.73
2018-08-06T17:09:54.659Z,3.87
2018-08-06T17:12:23.352Z,3.53
2018-08-06T17:14:52.001Z,3.60
2018-08-06T17:17:20.323Z,3.67
2018-08-06T17:19:49.248Z,3.80
2018-08-06T17:22:18.005Z,3.70
2018-08-06T17:24:46.649Z,3.70
2018-08-06T17:27:14.997Z,4.17
2018-08-06T17:29:43.758Z,3.90
2018-08-06T17:32:12.544Z,3.40
2018-08-06T17:34:41.230Z,3.47
2018-08-06T17:37:09.911Z,3.63
2018-08-06T17:39:39.257Z,4.40
2018-08-06T17:42:07.977Z,3.73
2018-08-06T17:44:36.688Z,4.57
2018-08-06T17:47:05.457Z,4.20
2018-08-06T17:49:34.128Z,4.50
2018-08-06T17:52:02.807Z,3.73
2018-08-06T17:54:31.456Z,4.00
2018-08-06T17:57:02.180Z,4.33
2018-08-06T17:59:30.865Z,4.20
2018-08-06T18:01:59.641Z,4.23
2018-08-06T18:04:28.268Z,3.40
2018-08-06T18:06:56.989Z,3.80
2018-08-06T18:09:26.129Z,4.47
2018-08-06T18:11:54.793Z,4.67
2018-08-06T18:14:24.352Z,5.07
2018-08-06T18:16:53.707Z,5.10
2018-08-06T18:19:22.372Z,5.17
2018-08-06T18:21:51.073Z,5.00
2018-08-06T18:24:19.725Z,5.00
2018-08-06T18:26:48.415Z,5.23
2018-08-06T18:29:17.497Z,5.30
2018-08-06T18:31:46.180Z,5.43
2018-08-06T18:34:14.937Z,5.10
2018-08-06T18:36:43.564Z,4.97
2018-08-06T18:39:12.851Z,5.60
2018-08-06T18:41:41.780Z,5.00
2018-08-06T18:44:10.496Z,4.90
2018-08-06T18:46:39.945Z,6.10
2018-08-06T18:49:08.708Z,5.57
2018-08-06T18:51:37.373Z,5.60
2018-08-06T18:54:06.299Z,6.30
2018-08-06T18:56:34.948Z,5.60
2018-08-06T18:59:03.675Z,5.50
2018-08-06T19:01:32.409Z,6.10
2018-08-06T19:04:01.070Z,5.70
2018-08-06T19:06:29.505Z,5.70
2018-08-06T19:08:58.269Z,5.57
2018-08-06T19:11:27.260Z,6.00
2018-08-06T19:14:01.225Z,6.10
2018-08-06T19:16:29.897Z,5.90
2018-08-06T19:19:03.953Z,6.07
2018-08-06T19:21:32.200Z,5.43
2018-08-06T19:24:06.283Z,5.57
2018-08-06T19:26:34.944Z,5.50
2018-08-06T19:29:03.588Z,5.63
2018-08-06T19:31:34.521Z,5.80
2018-08-06T19:34:03.256Z,6.00
2018-08-06T19:38:38.974Z,6.20
2018-08-06T19:41:07.746Z,6.00
2018-08-06T19:43:37.254Z,6.53
2018-08-06T19:46:06.608Z,6.10
2018-08-06T19:48:35.487Z,6.40
2018-08-06T19:51:04.348Z,6.87
2018-08-06T19:53:33.043Z,7.00
2018-08-06T19:56:07.074Z,6.70
2018-08-06T19:58:35.790Z,7.67
2018-08-06T20:01:04.518Z,7.07
2018-08-06T20:03:33.275Z,7.60
2018-08-06T20:06:01.993Z,8.33
2018-08-06T20:08:30.749Z,10.43
2018-08-06T20:10:59.433Z,8.93
2018-08-06T20:13:28.120Z,11.03
2018-08-06T20:15:56.761Z,13.90
2018-08-06T20:18:26.208Z,19.37
2018-08-06T20:20:54.885Z,18.33
2018-08-06T20:23:23.696Z,17.50
2018-08-06T20:25:52.437Z,19.63
2018-08-06T20:28:21.117Z,17.13
2018-08-06T20:30:49.840Z,17.60
2018-08-06T20:33:18.509Z,13.13
2018-08-06T20:35:47.228Z,10.90
2018-08-06T20:38:15.925Z,9.87
2018-08-06T20:40:44.645Z,11.37
2018-08-06T20:43:13.365Z,9.93
2018-08-06T20:45:42.077Z,11.00
2018-08-06T20:48:11.079Z,12.30
2018-08-06T20:50:39.741Z,11.70
2018-08-06T20:53:08.432Z,9.03
2018-08-06T20:55:37.129Z,9.30
2018-08-06T20:58:06.361Z,9.77
2018-08-06T21:00:35.283Z,9.93
2018-08-06T21:03:03.652Z,9.17
2018-08-06T21:05:32.033Z,8.80
2018-08-06T21:08:00.706Z,8.57
2018-08-06T21:10:29.520Z,8.03
2018-08-06T21:12:58.221Z,9.30
2018-08-06T21:15:27.553Z,8.00
2018-08-06T21:17:56.233Z,7.73
2018-08-06T21:20:25.654Z,7.73
2018-08-06T21:22:54.384Z,8.27
2018-08-06T21:25:22.878Z,8.93
2018-08-06T21:27:51.153Z,8.07
2018-08-06T21:30:21.140Z,8.33
2018-08-06T21:32:52.308Z,8.27
2018-08-06T21:35:21.635Z,7.80
2018-08-06T21:37:51.402Z,9.30
2018-08-06T21:40:20.821Z,7.87
2018-08-06T21:42:50.017Z,8.10
2018-08-06T21:45:18.811Z,7.80
2018-08-06T21:47:47.675Z,8.47
2018-08-06T21:50:16.575Z,7.77
2018-08-06T21:52:45.350Z,7.80
2018-08-06T21:55:14.102Z,7.77
2018-08-06T21:57:42.856Z,8.83
2018-08-06T22:00:15.429Z,8.43
2018-08-06T22:02:44.153Z,8.30
2018-08-06T22:05:12.912Z,8.27
2018-08-06T22:07:41.605Z,8.53
2018-08-06T22:10:10.107Z,8.67
2018-08-06T22:12:38.752Z,8.07
2018-08-06T22:15:07.485Z,8.27
2018-08-06T22:17:36.190Z,8.73
2018-08-06T22:20:05.356Z,8.10
2018-08-06T22:22:34.040Z,7.13
2018-08-06T22:25:02.463Z,7.80
2018-08-06T22:27:31.148Z,7.63
2018-08-06T22:29:59.894Z,7.10
2018-08-06T22:32:28.708Z,7.50
2018-08-06T22:34:57.564Z,6.50
2018-08-06T22:37:27.388Z,7.50
2018-08-06T22:39:56.046Z,6.80
2018-08-06T22:42:25.379Z,7.70
2018-08-06T22:44:54.082Z,6.20
2018-08-06T22:47:22.767Z,7.17
2018-08-06T22:49:51.458Z,6.83
2018-08-06T22:52:20.156Z,6.83
2018-08-06T22:54:48.852Z,6.40
2018-08-06T22:57:17.536Z,6.20
2018-08-06T22:59:46.241Z,6.97
2018-08-06T23:02:14.871Z,6.73
2018-08-06T23:04:43.340Z,6.30
2018-08-06T23:07:11.999Z,7.10
2018-08-06T23:09:40.764Z,6.00
2018-08-06T23:12:09.480Z,6.60
2018-08-06T23:14:38.188Z,6.00
2018-08-06T23:17:06.646Z,5.97
2018-08-06T23:19:36.252Z,5.60
2018-08-06T23:22:05.359Z,5.53
2018-08-06T23:24:34.076Z,5.43
2018-08-06T23:27:02.789Z,6.40
2018-08-06T23:29:31.503Z,5.83
2018-08-06T23:32:00.222Z,5.40
2018-08-06T23:34:28.907Z,5.67
2018-08-06T23:36:57.580Z,5.73
2018-08-06T23:39:26.903Z,5.03
2018-08-06T23:41:55.593Z,5.43
2018-08-06T23:44:23.925Z,5.90
2018-08-06T23:46:52.629Z,5.30
2018-08-06T23:49:21.328Z,4.97
2018-08-06T23:51:50.045Z,5.97
2018-08-06T23:54:18.692Z,5.37
2018-08-06T23:56:47.378Z,5.17
2018-08-06T23:59:16.125Z,5.43
